createdAt,value
2017-02-02T00:00:41.602Z,0.8
2017-02-02T00:02:53.776Z,0.8
2017-02-02T00:05:06.002Z,0.79
2017-02-02T00:07:18.311Z,0.79
2017-02-02T00:09:30.497Z,0.76
2017-02-02T00:11:42.646Z,0.76
2017-02-02T00:13:55.621Z,0.76
2017-02-02T00:16:07.985Z,0.73
2017-02-02T00:18:20.344Z,0.73
2017-02-02T00:20:31.017Z,0.72
2017-02-02T00:22:43.208Z,0.69
2017-02-02T00:24:55.419Z,0.68
2017-02-02T00:27:07.796Z,0.66
2017-02-02T00:29:20.093Z,0.66
2017-02-02T00:31:32.400Z,0.65
2017-02-02T00:33:44.636Z,0.66
2017-02-02T00:35:56.807Z,0.62
2017-02-02T00:38:08.920Z,0.58
2017-02-02T00:40:21.187Z,0.58
2017-02-02T00:42:33.399Z,0.55
2017-02-02T00:44:45.582Z,0.53
2017-02-02T00:46:57.865Z,0.5
2017-02-02T00:49:10.391Z,0.5
2017-02-02T00:51:22.808Z,0.49
2017-02-02T00:53:35.103Z,0.46
2017-02-02T00:55:47.404Z,0.44
2017-02-02T00:57:54.791Z,0.42
2017-02-02T01:00:06.992Z,0.41
2017-02-02T01:02:19.301Z,0.41
2017-02-02T01:04:31.584Z,0.39
2017-02-02T01:06:38.891Z,0.36
2017-02-02T01:08:51.278Z,0.36
2017-02-02T01:11:03.687Z,0.33
2017-02-02T01:13:15.903Z,0.32
2017-02-02T01:15:28.207Z,0.31
2017-02-02T01:17:40.394Z,0.29
2017-02-02T01:19:53.137Z,0.26
2017-02-02T01:22:06.019Z,0.21
2017-02-02T01:24:18.619Z,0.18
2017-02-02T01:26:30.941Z,0.18
2017-02-02T01:28:43.252Z,0.15
2017-02-02T01:30:55.529Z,0.17
2017-02-02T01:33:07.827Z,0.15
2017-02-02T01:35:20.125Z,0.14
2017-02-02T01:37:32.444Z,0.11
2017-02-02T01:39:44.644Z,0.11
2017-02-02T01:41:56.873Z,0.11
2017-02-02T01:44:09.102Z,0.1
2017-02-02T01:46:21.349Z,0.08
2017-02-02T01:48:33.657Z,0.04
2017-02-02T01:50:44.155Z,0.03
2017-02-02T01:52:56.333Z,-0.01
2017-02-02T01:55:08.716Z,-0.01
2017-02-02T01:57:21.503Z,-0.03
2017-02-02T01:59:33.828Z,-0.05
2017-02-02T02:01:46.107Z,-0.05
2017-02-02T02:03:58.267Z,-0.08
2017-02-02T02:06:10.616Z,-0.08
2017-02-02T02:08:22.782Z,-0.08
2017-02-02T02:10:35.008Z,-0.1
2017-02-02T02:12:47.221Z,-0.1
2017-02-02T02:14:59.561Z,-0.11
2017-02-02T02:17:06.783Z,-0.14
2017-02-02T02:19:18.978Z,-0.15
2017-02-02T02:21:31.288Z,-0.16
2017-02-02T02:23:43.609Z,-0.18
2017-02-02T02:25:55.903Z,-0.19
2017-02-02T02:28:08.069Z,-0.21
2017-02-02T02:30:21.046Z,-0.22
2017-02-02T02:32:33.721Z,-0.21
2017-02-02T02:34:45.892Z,-0.19
2017-02-02T02:36:58.225Z,-0.21
2017-02-02T02:39:10.427Z,-0.21
2017-02-02T02:41:22.637Z,-0.19
2017-02-02T02:43:34.937Z,-0.21
2017-02-02T02:45:47.229Z,-0.22
2017-02-02T02:47:59.634Z,-0.22
2017-02-02T02:50:11.957Z,-0.22
2017-02-02T02:52:24.345Z,-0.23
2017-02-02T02:54:34.901Z,-0.21
2017-02-02T02:56:47.040Z,-0.21
2017-02-02T02:58:59.323Z,-0.18
2017-02-02T03:01:11.595Z,-0.18
2017-02-02T03:03:24.018Z,-0.16
2017-02-02T03:05:36.816Z,-0.15
2017-02-02T03:07:49.433Z,-0.15
2017-02-02T03:10:01.610Z,-0.11
2017-02-02T03:12:13.929Z,-0.14
2017-02-02T03:14:26.136Z,-0.14
2017-02-02T03:16:38.329Z,-0.11
2017-02-02T03:18:40.765Z,-0.08
2017-02-02T03:20:53.294Z,-0.07
2017-02-02T03:23:05.495Z,-0.07
2017-02-02T03:25:17.699Z,-0.05
2017-02-02T03:27:28.176Z,-0.03
2017-02-02T03:29:40.357Z,-0.03
2017-02-02T03:31:52.492Z,-0.01
2017-02-02T03:34:04.757Z,0
2017-02-02T03:36:17.494Z,0.02
2017-02-02T03:38:29.960Z,0
2017-02-02T03:40:42.867Z,0
2017-02-02T03:42:55.321Z,0
2017-02-02T03:45:07.489Z,0
2017-02-02T03:47:19.786Z,-0.01
2017-02-02T03:49:26.898Z,-0.01
2017-02-02T03:51:39.107Z,-0.03
2017-02-02T03:53:51.367Z,-0.03
2017-02-02T03:56:03.663Z,0
2017-02-02T03:58:16.182Z,0
2017-02-02T04:00:28.482Z,0
2017-02-02T04:02:40.596Z,0
2017-02-02T04:04:52.790Z,0
2017-02-02T04:07:05.191Z,0
2017-02-02T04:09:12.560Z,0
2017-02-02T04:11:24.729Z,0
2017-02-02T04:13:37.012Z,0
2017-02-02T04:15:49.791Z,0
2017-02-02T04:18:01.975Z,0
2017-02-02T04:20:14.271Z,0
2017-02-02T04:22:26.507Z,0
2017-02-02T04:24:33.656Z,0
2017-02-02T04:26:46.262Z,0.02
2017-02-02T04:28:58.564Z,0
2017-02-02T04:31:10.964Z,0.02
2017-02-02T04:33:23.269Z,-0.01
2017-02-02T04:35:35.725Z,0
2017-02-02T04:37:47.978Z,0.02
2017-02-02T04:40:00.398Z,0.03
2017-02-02T04:42:12.801Z,0.03
2017-02-02T04:44:24.947Z,0.02
2017-02-02T04:46:37.079Z,0
2017-02-02T04:48:49.392Z,0
2017-02-02T04:51:02.184Z,0
2017-02-02T04:53:14.543Z,0.02
2017-02-02T04:55:24.965Z,0
2017-02-02T04:57:37.147Z,-0.01
2017-02-02T04:59:49.659Z,-0.03
2017-02-02T05:02:01.972Z,-0.03
2017-02-02T05:04:14.511Z,-0.03
2017-02-02T05:06:26.660Z,-0.01
2017-02-02T05:08:38.883Z,-0.03
2017-02-02T05:10:51.078Z,0
2017-02-02T05:13:03.481Z,0
2017-02-02T05:15:15.777Z,0.02
2017-02-02T05:17:28.069Z,0
2017-02-02T05:19:40.487Z,0
2017-02-02T05:21:52.738Z,0.02
2017-02-02T05:24:05.404Z,0
2017-02-02T05:26:17.684Z,0.02
2017-02-02T05:28:29.976Z,0
2017-02-02T05:30:42.120Z,0
2017-02-02T05:32:54.513Z,0.02
2017-02-02T05:35:06.814Z,0.02
2017-02-02T05:37:18.991Z,0.02
2017-02-02T05:39:31.173Z,0.02
2017-02-02T05:41:43.280Z,0.03
2017-02-02T05:43:55.706Z,0.02
2017-02-02T05:46:07.991Z,0.02
2017-02-02T05:48:20.310Z,0.02
2017-02-02T05:50:32.414Z,-0.01
2017-02-02T05:52:44.608Z,0
2017-02-02T05:54:56.899Z,-0.01
2017-02-02T05:57:09.318Z,-0.01
2017-02-02T05:59:21.587Z,-0.01
2017-02-02T06:01:33.758Z,-0.04
2017-02-02T06:03:41.113Z,-0.03
2017-02-02T06:05:51.951Z,-0.04
2017-02-02T06:08:04.153Z,-0.08
2017-02-02T06:10:16.378Z,-0.08
2017-02-02T06:12:28.532Z,-0.1
2017-02-02T06:14:40.656Z,-0.15
2017-02-02T06:16:52.936Z,-0.16
2017-02-02T06:19:05.247Z,-0.18
2017-02-02T06:21:17.375Z,-0.22
2017-02-02T06:23:29.654Z,-0.23
2017-02-02T06:25:41.906Z,-0.22
2017-02-02T06:27:54.084Z,-0.23
2017-02-02T06:30:06.400Z,-0.22
2017-02-02T06:32:18.987Z,-0.22
2017-02-02T06:34:31.458Z,-0.23
2017-02-02T06:36:43.652Z,-0.18
2017-02-02T06:38:55.889Z,-0.15
2017-02-02T06:41:08.156Z,-0.15
2017-02-02T06:43:20.795Z,-0.16
2017-02-02T06:45:33.067Z,-0.14
2017-02-02T06:47:45.595Z,-0.11
2017-02-02T06:49:57.892Z,-0.1
2017-02-02T06:52:10.006Z,-0.11
2017-02-02T06:54:22.339Z,-0.11
2017-02-02T06:56:34.613Z,-0.1
2017-02-02T06:58:46.880Z,-0.1
2017-02-02T07:00:59.917Z,-0.11
2017-02-02T07:03:12.111Z,-0.08
2017-02-02T07:05:24.295Z,-0.07
2017-02-02T07:07:32.124Z,-0.04
2017-02-02T07:09:44.804Z,-0.03
2017-02-02T07:11:57.211Z,-0.03
2017-02-02T07:14:09.505Z,-0.01
2017-02-02T07:16:20.474Z,0.02
2017-02-02T07:18:31.135Z,0
2017-02-02T07:20:38.526Z,0.02
2017-02-02T07:22:50.830Z,0.04
2017-02-02T07:25:03.030Z,0.04
2017-02-02T07:27:15.434Z,0.04
2017-02-02T07:29:27.592Z,0.07
2017-02-02T07:31:39.827Z,0.07
2017-02-02T07:33:52.140Z,0.08
2017-02-02T07:36:06.079Z,0.11
2017-02-02T07:38:18.351Z,0.13
2017-02-02T07:40:30.674Z,0.14
2017-02-02T07:42:44.204Z,0.17
2017-02-02T07:44:57.341Z,0.18
2017-02-02T07:47:09.540Z,0.24
2017-02-02T07:49:21.931Z,0.26
2017-02-02T07:51:34.250Z,0.31
2017-02-02T07:53:46.665Z,0.33
2017-02-02T07:55:59.069Z,0.38
2017-02-02T07:58:11.472Z,0.39
2017-02-02T08:00:23.782Z,0.39
2017-02-02T08:02:36.150Z,0.44
2017-02-02T08:04:48.582Z,0.46
2017-02-02T08:06:59.785Z,0.47
2017-02-02T08:09:13.363Z,0.49
2017-02-02T08:11:25.594Z,0.51
2017-02-02T08:13:38.655Z,0.55
2017-02-02T08:15:52.048Z,0.58
2017-02-02T08:18:05.653Z,0.61
2017-02-02T08:20:18.140Z,0.65
2017-02-02T08:22:30.458Z,0.65
2017-02-02T08:24:50.273Z,0.69
2017-02-02T08:27:02.528Z,0.7
2017-02-02T08:29:14.926Z,0.73
2017-02-02T08:31:27.228Z,0.79
2017-02-02T08:33:39.632Z,0.83
2017-02-02T08:35:51.930Z,0.88
2017-02-02T08:38:04.143Z,0.93
2017-02-02T08:40:16.341Z,0.98
2017-02-02T08:42:28.503Z,1.02
2017-02-02T08:44:40.759Z,1.09
2017-02-02T08:46:53.058Z,1.15
2017-02-02T08:49:03.603Z,1.22
2017-02-02T08:51:15.759Z,1.32
2017-02-02T08:53:28.391Z,1.41
2017-02-02T08:55:41.121Z,1.52
2017-02-02T08:57:53.416Z,1.65
2017-02-02T09:00:05.597Z,1.8
2017-02-02T09:02:17.758Z,1.95
2017-02-02T09:04:30.110Z,2.12
2017-02-02T09:06:42.324Z,2.31
2017-02-02T09:08:54.538Z,2.49
2017-02-02T09:11:06.674Z,2.71
2017-02-02T09:13:19.024Z,2.89
2017-02-02T09:15:31.307Z,3.05
2017-02-02T09:17:43.533Z,3.14
2017-02-02T09:19:50.835Z,3.33
2017-02-02T09:22:03.020Z,3.33
2017-02-02T09:24:15.642Z,3.58
2017-02-02T09:26:22.892Z,3.73
2017-02-02T09:28:35.088Z,3.76
2017-02-02T09:30:47.506Z,3.76
2017-02-02T09:32:59.793Z,4
2017-02-02T09:35:12.913Z,4.09
2017-02-02T09:37:25.712Z,4.36
2017-02-02T09:39:37.860Z,4.51
2017-02-02T09:41:53.670Z,4.67
2017-02-02T09:44:09.760Z,4.97
2017-02-02T09:46:24.098Z,5.18
2017-02-02T09:48:51.734Z,5.4
2017-02-02T09:51:04.373Z,5.63
2017-02-02T09:53:16.656Z,5.81
2017-02-02T09:55:28.935Z,6.15
2017-02-02T09:57:41.137Z,6.52
2017-02-02T09:59:53.393Z,6.88
2017-02-02T10:02:05.732Z,7.16
2017-02-02T10:04:18.139Z,8.11
2017-02-02T10:06:29.409Z,8.87
2017-02-02T10:08:41.692Z,9.99
2017-02-02T10:10:49.186Z,10.14
2017-02-02T10:13:01.489Z,10.42
2017-02-02T10:15:12.143Z,10.36
2017-02-02T10:17:24.452Z,10.14
2017-02-02T10:19:36.608Z,10.38
2017-02-02T10:21:48.988Z,10.94
2017-02-02T10:23:56.208Z,10.59
2017-02-02T10:26:08.453Z,10.51
2017-02-02T10:28:20.740Z,10.34
2017-02-02T10:30:28.038Z,10.25
2017-02-02T10:32:40.187Z,10.09
2017-02-02T10:34:47.399Z,9.91
2017-02-02T10:36:59.723Z,9.79
2017-02-02T10:39:07.117Z,9.76
2017-02-02T10:41:20.003Z,9.78
2017-02-02T10:43:27.231Z,9.84
2017-02-02T10:45:39.841Z,9.9
2017-02-02T10:47:52.199Z,10.11
2017-02-02T10:50:04.608Z,10.34
2017-02-02T10:52:16.791Z,10.4
2017-02-02T10:54:29.125Z,10.51
2017-02-02T10:56:41.529Z,10.79
2017-02-02T10:58:53.712Z,11.06
2017-02-02T11:01:09.809Z,11
2017-02-02T11:03:22.009Z,10.96
2017-02-02T11:05:34.332Z,10.94
2017-02-02T11:07:46.696Z,11.1
2017-02-02T11:09:58.904Z,11.78
2017-02-02T11:12:06.115Z,13.97
2017-02-02T11:14:18.401Z,14.51
2017-02-02T11:16:30.930Z,14.83
2017-02-02T11:18:43.254Z,15.6
2017-02-02T11:20:55.497Z,16.39
2017-02-02T11:23:07.718Z,17.36
2017-02-02T11:25:20.103Z,18.21
2017-02-02T11:27:32.300Z,18.7
2017-02-02T11:29:44.701Z,18.94
2017-02-02T11:31:57.007Z,19.02
2017-02-02T11:34:09.303Z,19.56
2017-02-02T11:36:21.668Z,20.18
2017-02-02T11:38:33.815Z,19.98
2017-02-02T11:40:44.338Z,19.99
2017-02-02T11:42:56.534Z,20.67
2017-02-02T11:45:09.278Z,20.59
2017-02-02T11:47:22.288Z,20.38
2017-02-02T11:49:34.661Z,20.8
2017-02-02T11:51:46.916Z,20.82
2017-02-02T11:53:59.267Z,19.73
2017-02-02T11:56:11.624Z,18.58
2017-02-02T11:58:23.817Z,18.85
2017-02-02T12:00:36.057Z,18.41
2017-02-02T12:02:43.896Z,18.99
2017-02-02T12:04:56.127Z,19
2017-02-02T12:07:03.494Z,19.31
2017-02-02T12:09:15.835Z,19.84
2017-02-02T12:11:18.062Z,20.05
2017-02-02T12:13:30.452Z,19.08
2017-02-02T12:15:42.613Z,18.75
2017-02-02T12:17:54.955Z,18.94
2017-02-02T12:20:07.157Z,18.42
2017-02-02T12:22:21.242Z,18.07
2017-02-02T12:24:33.917Z,17.74
2017-02-02T12:26:44.979Z,17.03
2017-02-02T12:28:57.415Z,16.39
2017-02-02T12:31:10.923Z,16.39
2017-02-02T12:33:13.151Z,16.58
2017-02-02T12:35:25.307Z,16.24
2017-02-02T12:37:37.581Z,15.82
2017-02-02T12:39:49.796Z,14.96
2017-02-02T12:42:02.089Z,14.51
2017-02-02T12:44:14.423Z,14.1
2017-02-02T12:46:26.705Z,13.77
2017-02-02T12:48:39.260Z,13.51
2017-02-02T12:50:51.512Z,13.46
2017-02-02T12:53:03.788Z,13.36
2017-02-02T12:55:16.100Z,13.32
2017-02-02T12:57:28.396Z,13.12
2017-02-02T12:59:40.526Z,13.69
2017-02-02T13:01:53.370Z,14.03
2017-02-02T13:04:00.646Z,14.02
2017-02-02T13:06:12.821Z,13.92
2017-02-02T13:08:25.118Z,14.1
2017-02-02T13:10:37.296Z,13.92
2017-02-02T13:12:49.604Z,13.77
2017-02-02T13:15:01.906Z,13.71
2017-02-02T13:17:14.221Z,13.45
2017-02-02T13:19:26.505Z,13.23
2017-02-02T13:21:38.894Z,12.9
2017-02-02T13:23:51.108Z,12.82
2017-02-02T13:26:03.405Z,12.78
2017-02-02T13:28:15.542Z,12.62
2017-02-02T13:30:27.821Z,12.45
2017-02-02T13:32:34.996Z,12.27
2017-02-02T13:34:47.199Z,12.1
2017-02-02T13:36:59.479Z,11.91
2017-02-02T13:39:11.884Z,11.86
2017-02-02T13:41:19.265Z,11.78
2017-02-02T13:43:31.636Z,11.69
2017-02-02T13:45:43.991Z,11.64
2017-02-02T13:47:56.279Z,11.6
2017-02-02T13:50:08.593Z,11.8
2017-02-02T13:52:20.883Z,11.95
2017-02-02T13:54:33.516Z,12.21
2017-02-02T13:56:45.888Z,12.95
2017-02-02T13:58:53.106Z,13.52
2017-02-02T14:01:00.361Z,13.59
2017-02-02T14:03:12.661Z,13.84
2017-02-02T14:05:25.094Z,13.81
2017-02-02T14:07:37.372Z,13.66
2017-02-02T14:09:49.576Z,13.51
2017-02-02T14:12:01.971Z,13.62
2017-02-02T14:14:14.278Z,13.26
2017-02-02T14:16:29.056Z,12.89
2017-02-02T14:18:41.640Z,12.57
2017-02-02T14:20:54.046Z,12.46
2017-02-02T14:23:06.352Z,12.6
2017-02-02T14:25:18.700Z,13.07
2017-02-02T14:27:40.427Z,12.87
2017-02-02T14:30:34.017Z,12.49
2017-02-02T14:32:50.025Z,12.28
2017-02-02T14:35:02.384Z,12.42
2017-02-02T14:37:14.728Z,12.56
2017-02-02T14:39:22.065Z,12.56
2017-02-02T14:41:34.423Z,12.32
2017-02-02T14:43:46.722Z,12.14
2017-02-02T14:45:59.113Z,12.02
2017-02-02T14:48:11.920Z,11.78
2017-02-02T14:50:24.140Z,11.49
2017-02-02T14:52:36.435Z,11.25
2017-02-02T14:54:48.638Z,10.94
2017-02-02T14:57:01.365Z,10.71
2017-02-02T14:59:13.658Z,10.53
2017-02-02T15:01:25.880Z,10.4
2017-02-02T15:03:33.307Z,10.26
2017-02-02T15:05:45.449Z,10.12
2017-02-02T15:07:57.938Z,9.91
2017-02-02T15:10:10.159Z,9.74
2017-02-02T15:12:22.341Z,9.51
2017-02-02T15:14:29.718Z,9.35
2017-02-02T15:16:42.631Z,9.15
2017-02-02T15:18:54.948Z,8.91
2017-02-02T15:21:07.571Z,8.8
2017-02-02T15:23:20.273Z,8.66
2017-02-02T15:25:32.981Z,8.48
2017-02-02T15:27:45.395Z,8.26
2017-02-02T15:29:52.698Z,8.12
2017-02-02T15:32:04.955Z,7.95
2017-02-02T15:34:17.143Z,7.79
2017-02-02T15:36:24.754Z,7.61
2017-02-02T15:38:32.415Z,7.43
2017-02-02T15:40:45.492Z,7.28
2017-02-02T15:42:57.765Z,7.1
2017-02-02T15:45:10.096Z,6.94
2017-02-02T15:47:18.213Z,6.79
2017-02-02T15:49:30.554Z,6.59
2017-02-02T15:51:42.773Z,6.43
2017-02-02T15:53:48.293Z,6.3
2017-02-02T15:56:00.822Z,6.14
2017-02-02T15:58:13.562Z,5.93
2017-02-02T16:00:25.932Z,5.74
2017-02-02T16:02:38.618Z,5.58
2017-02-02T16:04:50.857Z,5.42
2017-02-02T16:07:03.057Z,5.28
2017-02-02T16:09:15.445Z,5.17
2017-02-02T16:11:27.866Z,5.06
2017-02-02T16:13:40.099Z,4.96
2017-02-02T16:15:52.366Z,4.8
2017-02-02T16:18:04.872Z,4.73
2017-02-02T16:20:12.070Z,4.69
2017-02-02T16:22:19.454Z,4.65
2017-02-02T16:24:27.402Z,4.59
2017-02-02T16:26:42.920Z,4.47
2017-02-02T16:28:55.332Z,4.33
2017-02-02T16:31:09.996Z,4.18
2017-02-02T16:33:22.288Z,4.09
2017-02-02T16:35:38.663Z,3.96
2017-02-02T16:37:50.875Z,3.87
2017-02-02T16:40:05.284Z,3.72
2017-02-02T16:42:22.960Z,3.61
2017-02-02T16:44:39.252Z,3.54
2017-02-02T16:47:04.573Z,3.4
2017-02-02T16:49:36.231Z,3.32
2017-02-02T16:52:02.982Z,3.21
2017-02-02T16:54:40.505Z,3.17
2017-02-02T16:57:06.738Z,3.11
2017-02-02T16:59:32.673Z,2.99
2017-02-02T17:01:56.683Z,2.89
2017-02-02T17:04:15.415Z,2.84
2017-02-02T17:06:38.612Z,2.77
2017-02-02T17:09:07.306Z,2.69
2017-02-02T17:11:34.950Z,2.61
2017-02-02T17:14:07.301Z,2.59
2017-02-02T17:16:46.599Z,2.52
2017-02-02T17:19:12.329Z,2.43
2017-02-02T17:21:45.391Z,2.36
2017-02-02T17:24:22.512Z,2.27
2017-02-02T17:27:06.003Z,2.24
2017-02-02T17:29:51.009Z,2.17
2017-02-02T17:32:35.152Z,2.07
2017-02-02T17:35:19.353Z,1.98
2017-02-02T17:38:04.826Z,1.84
2017-02-02T17:40:53.962Z,1.73
2017-02-02T17:43:40.492Z,1.65
2017-02-02T17:46:29.137Z,1.51
2017-02-02T17:49:10.327Z,1.48
2017-02-02T17:51:52.433Z,1.42
2017-02-02T17:54:28.344Z,1.33
2017-02-02T17:57:05.725Z,1.26
2017-02-02T17:59:44.720Z,1.2
2017-02-02T18:02:24.328Z,1.16
2017-02-02T18:05:01.256Z,1.12
2017-02-02T18:07:37.691Z,1.09
2017-02-02T18:10:20.963Z,1.06
2017-02-02T18:13:09.239Z,0.97
2017-02-02T18:15:52.011Z,0.93
2017-02-02T18:18:27.152Z,0.88
2017-02-02T18:20:57.432Z,0.84
2017-02-02T18:23:30.008Z,0.79
2017-02-02T18:26:11.016Z,0.75
2017-02-02T18:28:51.981Z,0.75
2017-02-02T18:31:19.023Z,0.73
2017-02-02T18:33:36.273Z,0.7
2017-02-02T18:35:49.602Z,0.66
2017-02-02T18:38:43.143Z,0.61
2017-02-02T18:41:42.138Z,0.61
2017-02-02T18:44:43.850Z,0.57
2017-02-02T18:47:42.691Z,0.57
2017-02-02T18:50:44.669Z,0.55
2017-02-02T18:53:47.634Z,0.5
2017-02-02T18:56:56.538Z,0.5
2017-02-02T19:00:09.878Z,0.46
2017-02-02T19:03:15.654Z,0.47
2017-02-02T19:05:57.817Z,0.42
2017-02-02T19:08:12.227Z,0.36
2017-02-02T19:10:57.447Z,0.36
2017-02-02T19:13:43.528Z,0.35
2017-02-02T19:15:55.762Z,0.33
2017-02-02T19:18:33.172Z,0.29
2017-02-02T19:21:25.048Z,0.23
2017-02-02T19:24:12.145Z,0.26
2017-02-02T19:27:05.470Z,0.23
2017-02-02T19:30:03.567Z,0.26
2017-02-02T19:33:01.344Z,0.21
2017-02-02T19:36:03.240Z,0.15
2017-02-02T19:38:57.805Z,0.13
2017-02-02T19:41:59.232Z,0.08
2017-02-02T19:44:54.752Z,0.08
2017-02-02T19:47:43.484Z,0.04
2017-02-02T19:49:56.521Z,0.02
2017-02-02T19:52:10.069Z,0.02
2017-02-02T19:54:22.214Z,0
2017-02-02T19:56:37.436Z,0.02
2017-02-02T19:58:52.154Z,-0.01
2017-02-02T20:01:09.434Z,-0.04
2017-02-02T20:03:25.918Z,-0.07
2017-02-02T20:05:39.315Z,-0.1
2017-02-02T20:07:50.015Z,-0.1
2017-02-02T20:10:02.443Z,-0.15
2017-02-02T20:12:15.057Z,-0.21
2017-02-02T20:14:51.324Z,-0.25
2017-02-02T20:17:01.938Z,-0.23
2017-02-02T20:19:14.386Z,-0.29
2017-02-02T20:21:26.711Z,-0.26
2017-02-02T20:23:39.182Z,-0.34
2017-02-02T20:25:51.616Z,-0.44
2017-02-02T20:28:03.819Z,-0.46
2017-02-02T20:30:06.406Z,-0.52
2017-02-02T20:32:18.768Z,-0.54
2017-02-02T20:34:29.477Z,-0.58
2017-02-02T20:36:41.917Z,-0.65
2017-02-02T20:38:54.484Z,-0.7
2017-02-02T20:41:01.788Z,-0.78
2017-02-02T20:43:14.148Z,-0.83
2017-02-02T20:45:26.872Z,-0.82
2017-02-02T20:47:40.987Z,-0.82
2017-02-02T20:49:53.298Z,-0.85
2017-02-02T20:52:05.678Z,-0.92
2017-02-02T20:54:17.891Z,-0.99
2017-02-02T20:56:30.099Z,-0.99
2017-02-02T20:58:42.663Z,-1.09
2017-02-02T21:00:54.927Z,-1.2
2017-02-02T21:03:05.550Z,-1.28
2017-02-02T21:05:17.995Z,-1.35
2017-02-02T21:07:26.171Z,-1.2
2017-02-02T21:09:38.884Z,-1.15
2017-02-02T21:11:51.900Z,-1.19
2017-02-02T21:14:04.805Z,-1.22
2017-02-02T21:16:12.236Z,-1.13
2017-02-02T21:18:21.310Z,-1.16
2017-02-02T21:20:35.676Z,-1.1
2017-02-02T21:22:48.401Z,-0.98
2017-02-02T21:25:01.863Z,-0.94
2017-02-02T21:27:14.569Z,-0.86
2017-02-02T21:29:21.912Z,-0.89
2017-02-02T21:31:34.526Z,-0.89
2017-02-02T21:33:48.373Z,-0.91
2017-02-02T21:36:21.154Z,-0.91
2017-02-02T21:38:54.974Z,-0.89
2017-02-02T21:41:29.912Z,-0.86
2017-02-02T21:44:21.361Z,-0.79
2017-02-02T21:46:49.410Z,-0.73
2017-02-02T21:48:56.869Z,-0.75
2017-02-02T21:51:09.288Z,-0.82
2017-02-02T21:53:21.770Z,-0.83
2017-02-02T21:55:34.200Z,-0.86
2017-02-02T21:57:46.495Z,-0.86
2017-02-02T21:59:58.925Z,-0.89
2017-02-02T22:02:11.184Z,-0.91
2017-02-02T22:04:23.460Z,-0.91
2017-02-02T22:06:35.792Z,-0.82
2017-02-02T22:08:43.115Z,-0.67
2017-02-02T22:10:55.329Z,-0.25
2017-02-02T22:13:07.557Z,-0.21
2017-02-02T22:15:15.072Z,-0.18
2017-02-02T22:17:27.358Z,-0.16
2017-02-02T22:19:39.627Z,-0.16
2017-02-02T22:21:51.845Z,-0.16
2017-02-02T22:23:59.088Z,-0.16
2017-02-02T22:26:11.404Z,-0.18
2017-02-02T22:28:23.583Z,-0.18
2017-02-02T22:30:35.964Z,-0.21
2017-02-02T22:32:48.257Z,-0.19
2017-02-02T22:35:00.445Z,-0.19
2017-02-02T22:37:12.678Z,-0.19
2017-02-02T22:39:25.154Z,-0.21
2017-02-02T22:41:37.379Z,-0.19
2017-02-02T22:43:49.580Z,-0.16
2017-02-02T22:46:01.937Z,-0.15
2017-02-02T22:48:14.238Z,-0.18
2017-02-02T22:50:26.563Z,-0.19
2017-02-02T22:52:38.830Z,-0.19
2017-02-02T22:54:51.056Z,-0.21
2017-02-02T22:57:03.356Z,-0.21
2017-02-02T22:59:15.639Z,-0.22
2017-02-02T23:01:26.135Z,-0.22
2017-02-02T23:03:38.568Z,-0.22
2017-02-02T23:05:45.816Z,-0.22
2017-02-02T23:07:58.252Z,-0.23
2017-02-02T23:10:11.024Z,-0.21
2017-02-02T23:12:23.304Z,-0.18
2017-02-02T23:14:36.123Z,-0.21
2017-02-02T23:16:48.450Z,-0.19
2017-02-02T23:19:01.033Z,-0.16
2017-02-02T23:21:13.372Z,-0.16
2017-02-02T23:23:25.736Z,-0.15
2017-02-02T23:25:39.690Z,-0.15
2017-02-02T23:27:52.152Z,-0.16
2017-02-02T23:30:04.408Z,-0.14
2017-02-02T23:32:16.615Z,-0.18
2017-02-02T23:34:29.024Z,-0.16
2017-02-02T23:36:41.299Z,-0.16
2017-02-02T23:38:48.473Z,-0.15
2017-02-02T23:41:00.777Z,-0.15
2017-02-02T23:43:13.066Z,-0.14
2017-02-02T23:45:25.254Z,-0.14
2017-02-02T23:47:37.678Z,-0.14
2017-02-02T23:49:49.915Z,-0.14
2017-02-02T23:52:02.285Z,-0.14
2017-02-02T23:54:14.587Z,-0.16
2017-02-02T23:56:26.877Z,-0.16
2017-02-02T23:58:32.540Z,-0.18
